ADDS METAR Data INFO
IDs: Format: Raw Decoded Include TAF

Data at: 1349 UTC 23 Jun 2018

KJXN 231342Z 31004KT 1 1/4SM BR OVC003 19/19 A2970 RMK AO2 T01890189
KJXN 231314Z VRB04KT 2 1/2SM BR OVC003 19/19 A2971 RMK AO2 T01890189
KJXN 231256Z 31003KT 4SM BR OVC003 19/18 A2971 RMK AO2 RAE56 SLP056 P0005 T01890183
KJXN 231242Z 32003KT 4SM -RA BR OVC002 18/18 A2971 RMK AO2 P0005 T01830183
KJXN 231232Z 00000KT 2 1/2SM -RA BR BKN002 BKN026 OVC070 18/18 A2970 RMK AO2 P0004 T01830183
KJXN 231156Z 33004KT 1 1/2SM RA BR BKN003 OVC018 18/18 A2971 RMK AO2 RAB15 SLP057 P0024 60024 70066 T01780178 10178 20178 51007
KJXN 231151Z 00000KT 1SM RA BR BKN003 OVC018 18/18 A2971 RMK AO2 RAB15 P0023
KJXN 231143Z 00000KT 3/4SM RA BR BKN003 OVC018 18/18 A2971 RMK AO2 RAB15 P0020 T01780178
KJXN 231056Z 31003KT 1/4SM FG VV002 18/18 A2971 RMK AO2 SLP056 T01780178
KJXN 231042Z AUTO 00000KT 1/4SM FG VV002 18/18 A2970 RMK AO2 T01780178
KJXN 231034Z AUTO 31004KT 1/2SM FG VV002 18/18 A2970 RMK AO2 T01780178
KJXN 230956Z AUTO 00000KT 1 1/2SM BR OVC002 18/18 A2968 RMK AO2 SLP048 T01780178
KJXN 230935Z AUTO 32003KT 2SM BR OVC002 18/18 A2968 RMK AO2 T01780178
KJXN 230910Z AUTO 01003KT 1 3/4SM BR OVC002 18/18 A2967 RMK AO2 T01780178
KJXN 230856Z AUTO 35003KT 2SM BR OVC002 18/18 A2968 RMK AO2 SLP047 T01780178 58009
KJXN 230837Z AUTO 00000KT 2SM BR OVC002 18/18 A2968 RMK AO2 T01780178
KJXN 230756Z AUTO 01003KT 1 1/2SM BR OVC002 18/18 A2969 RMK AO2 SLP050 T01780178
KJXN 230656Z AUTO 03003KT 1SM BR OVC002 18/18 A2970 RMK AO2 SLP054 T01780178
KJXN 230606Z AUTO 02005KT 1SM BR OVC002 17/17 A2970 RMK AO2 T01720172
KJXN 230556Z AUTO 03005KT 3/4SM BR VV002 17/17 A2971 RMK AO2 SLP056 T01720172 10178 20172 58007
KJXN 230537Z AUTO 03004KT 3/4SM BR VV002 17/17 A2971 RMK AO2 T01720172
KJXN 230456Z AUTO 05004KT 1 1/2SM BR OVC002 17/17 A2972 RMK AO2 SLP060 T01720172 402220167
KJXN 230453Z AUTO 04005KT 1 3/4SM BR OVC002 17/17 A2972 RMK AO2
KJXN 230356Z AUTO 04006KT 2 1/2SM BR OVC003 17/17 A2973 RMK AO2 SLP062 T01720172
KJXN 230317Z AUTO 05005KT 2 1/2SM BR OVC004 17/17 A2974 RMK AO2 T01720172
KJXN 230256Z AUTO 05006KT 4SM BR OVC004 17/17 A2974 RMK AO2 SLP067 T01720172 53001
KJXN 230231Z AUTO 04005KT 2SM BR OVC004 17/17 A2974 RMK AO2 T01720172
KJXN 230218Z AUTO 06006KT 4SM BR OVC004 17/17 A2973 RMK AO2 T01720172
KJXN 230156Z AUTO 05005G15KT 7SM OVC005 17/17 A2973 RMK AO2 SLP063 T01720172
KJXN 230056Z 05009KT 8SM OVC006 18/17 A2973 RMK AO2 SLP066 T01780172
KJXN 230023Z 05008KT 3SM BR OVC008 18/17 A2974 RMK AO2 CIG 006V012 T01780167
KJXN 222356Z 05008KT 9SM OVC011 18/17 A2974 RMK AO2 CIG 008V014 SLP068 60040 T01780167 10194 20178 56007
KJXN 222332Z 06008G15KT 10SM BKN013 OVC019 18/17 A2974 RMK AO2 T01830167
KJXN 222306Z 06007KT 10SM SCT014 BKN019 OVC028 18/17 A2974 RMK AO2 T01830167
KJXN 222256Z 05009KT 10SM BKN013 OVC029 18/17 A2974 RMK AO2 SLP068 T01830172
KJXN 222156Z 05008KT 10SM FEW009 BKN030 OVC041 18/17 A2974 RMK AO2 RAE00 SLP069 P0000 T01830172
KJXN 222130Z 07009KT 8SM FEW009 BKN029 OVC080 19/18 A2976 RMK AO2 RAE00 P0000 T01890178
KJXN 222108Z 05007KT 7SM SCT029 OVC090 18/18 A2976 RMK AO2 RAE00 P0000 T01830178
KJXN 222056Z 06006KT 7SM -RA BKN029 BKN055 OVC075 18/18 A2976 RMK AO2 SLP074 P0019 60040 T01830178 50000
KJXN 222047Z 06006KT 3SM RA BR BKN026 BKN045 OVC055 18/17 A2977 RMK AO2 P0019 T01830172
KJXN 222039Z 07006KT 3SM RA BR SCT026 BKN049 OVC075 18/18 A2977 RMK AO2 P0016 T01830178
KJXN 222029Z 07005KT 3SM RA BR BKN026 BKN043 OVC070 18/18 A2977 RMK AO2 P0013 T01830178
KJXN 222015Z 07006KT 2 1/2SM +RA BR SCT028 BKN055 OVC070 19/18 A2977 RMK AO2 P0009 T01890178
KJXN 221956Z 07006KT 2 1/2SM +RA BR BKN026 OVC060 19/18 A2978 RMK AO2 SLP080 P0015 T01940178
KJXN 221941Z 00000KT 2 1/2SM RA BR BKN026 OVC043 19/18 A2978 RMK AO2 P0010 T01890183
KJXN 221931Z 00000KT 4SM -RA BR BKN026 BKN045 OVC060 19/18 A2977 RMK AO2 P0008 T01890178
KJXN 221856Z 00000KT 9SM -RA FEW070 BKN100 OVC120 19/17 A2976 RMK AO2 SLP072 P0006 T01890167
KJXN 221756Z 04011KT 9SM -RA SCT090 OVC110 19/17 A2976 RMK AO2 RAB31 SLP073 P0002 60002 T01940167 10222 20167 58015
KJXN 221746Z 04012KT 8SM -RA SCT027 OVC095 20/17 A2977 RMK AO2 RAB31 P0001 T02000172
KJXN 221656Z 03012KT 10SM BKN027 OVC095 22/16 A2979 RMK AO2 SLP081 T02170156
KJXN 221642Z 05011KT 10SM BKN027 BKN095 22/16 A2979 RMK AO2 T02170156
KJXN 221556Z 04011KT 10SM BKN085 BKN110 22/16 A2980 RMK AO2 SLP084 T02170156
KJXN 221456Z 04009KT 10SM OVC100 21/13 A2981 RMK AO2 SLP089 60000 T02060133 50000
KJXN 221356Z 06006KT 10SM OVC100 19/12 A2981 RMK AO2 SLP091 T01890117
KJXN 221256Z 04006KT 10SM OVC100 17/11 A2981 RMK AO2 RAE37 SLP092 P0000 T01720106
KJXN 221156Z 04007KT 10SM -RA FEW050 FEW075 OVC100 17/09 A2981 RMK AO2 RAB56 SLP089 P0000 60000 T01720094 10189 20172 50000
KJXN 221056Z 05008KT 10SM OVC110 17/09 A2981 RMK AO2 SLP090 T01720089
KJXN 220956Z AUTO 06005KT 10SM BKN110 17/10 A2981 RMK AO2 SLP090 T01720100
KJXN 220856Z AUTO 05007KT 10SM FEW060 FEW095 BKN120 18/11 A2981 RMK AO2 SLP088 T01780106 56009
KJXN 220756Z AUTO 04007KT 10SM BKN110 18/13 A2981 RMK AO2 SLP089 T01780128
KJXN 220656Z AUTO 04005KT 10SM BKN110 18/14 A2982 RMK AO2 SLP092 T01830139
KJXN 220556Z AUTO 04005KT 10SM FEW100 BKN120 19/14 A2983 RMK AO2 SLP097 T01890139 10222 20189 58004
KJXN 220456Z AUTO 06009KT 10SM CLR 20/14 A2984 RMK AO2 SLP101 T02000144 402500139
KJXN 220356Z AUTO 05008KT 10SM CLR 21/16 A2985 RMK AO2 SLP101 T02060156
KJXN 220256Z AUTO 06006KT 10SM CLR 21/15 A2985 RMK AO2 SLP102 T02060150 51004
KJXN 220156Z AUTO 04004KT 10SM CLR 20/16 A2985 RMK AO2 SLP102 T02000156